createdAt,value
2022-12-31T00:01:13.033Z,8.64
2022-12-31T00:03:40.084Z,8.65
2022-12-31T00:06:32.788Z,8.68
2022-12-31T00:09:00.374Z,8.71
2022-12-31T00:11:27.777Z,8.75
2022-12-31T00:13:54.229Z,8.75
2022-12-31T00:16:28.366Z,8.75
2022-12-31T00:18:55.981Z,8.74
2022-12-31T00:21:22.574Z,8.75
2022-12-31T00:23:48.849Z,8.79
2022-12-31T00:26:16.897Z,8.81
2022-12-31T00:28:43.972Z,8.82
2022-12-31T00:31:12.053Z,8.83
2022-12-31T00:33:38.812Z,8.83
2022-12-31T00:36:25.413Z,8.82
2022-12-31T00:38:52.852Z,8.81
2022-12-31T00:41:19.851Z,8.81
2022-12-31T00:43:46.170Z,8.86
2022-12-31T00:46:12.907Z,8.85
2022-12-31T00:48:39.357Z,8.85
2022-12-31T00:51:06.851Z,8.88
2022-12-31T00:53:33.570Z,8.87
2022-12-31T00:56:04.303Z,8.89
2022-12-31T00:58:30.634Z,8.86
2022-12-31T01:00:57.350Z,8.86
2022-12-31T01:03:23.991Z,8.83
2022-12-31T01:05:50.432Z,8.82
2022-12-31T01:08:17.119Z,8.81
2022-12-31T01:11:06.610Z,8.80
2022-12-31T01:13:32.949Z,8.78
2022-12-31T01:16:06.251Z,8.76
2022-12-31T01:18:32.545Z,8.76
2022-12-31T01:21:00.971Z,8.77
2022-12-31T01:23:27.257Z,8.75
2022-12-31T01:25:53.527Z,8.73
2022-12-31T01:28:19.781Z,8.69
2022-12-31T01:30:46.726Z,8.63
2022-12-31T01:33:13.011Z,8.58
2022-12-31T01:35:39.277Z,8.56
2022-12-31T01:38:05.522Z,8.55
2022-12-31T01:40:35.991Z,8.58
2022-12-31T01:43:02.287Z,8.63
2022-12-31T01:45:29.165Z,8.64
2022-12-31T01:47:58.703Z,8.66
2022-12-31T01:50:27.498Z,8.65
2022-12-31T01:52:55.882Z,8.65
2022-12-31T01:55:37.302Z,8.64
2022-12-31T01:58:10.359Z,8.66
2022-12-31T02:00:36.866Z,8.69
2022-12-31T02:03:05.362Z,8.73
2022-12-31T02:05:35.067Z,8.75
2022-12-31T02:08:02.414Z,8.75
2022-12-31T02:10:28.706Z,8.75
2022-12-31T02:12:55.019Z,8.74
2022-12-31T02:15:24.689Z,8.75
2022-12-31T02:18:03.389Z,8.74
2022-12-31T02:20:44.917Z,8.71
2022-12-31T02:23:29.672Z,8.70
2022-12-31T02:26:06.009Z,8.70
2022-12-31T02:28:59.228Z,8.73
2022-12-31T02:31:33.236Z,8.73
2022-12-31T02:34:12.246Z,8.72
2022-12-31T02:36:42.233Z,8.75
2022-12-31T02:39:10.015Z,8.74
2022-12-31T02:41:51.818Z,8.74
2022-12-31T02:44:38.389Z,8.75
2022-12-31T02:47:07.801Z,8.76
2022-12-31T02:49:52.979Z,8.76
2022-12-31T02:52:19.229Z,8.78
2022-12-31T02:54:55.996Z,8.78
2022-12-31T02:57:28.098Z,8.78
2022-12-31T03:00:24.422Z,8.77
2022-12-31T03:02:51.567Z,8.78
2022-12-31T03:05:19.489Z,8.80
2022-12-31T03:07:46.105Z,8.78
2022-12-31T03:10:12.824Z,8.81
2022-12-31T03:12:46.597Z,8.82
2022-12-31T03:15:20.649Z,8.84
2022-12-31T03:17:49.774Z,8.86
2022-12-31T03:20:34.784Z,8.90
2022-12-31T03:23:01.566Z,8.94
2022-12-31T03:25:34.582Z,8.95
2022-12-31T03:28:05.969Z,8.92
2022-12-31T03:30:32.498Z,8.90
2022-12-31T03:32:59.182Z,8.93
2022-12-31T03:35:26.762Z,8.91
2022-12-31T03:37:53.532Z,8.91
2022-12-31T03:40:23.442Z,8.89
2022-12-31T03:42:49.768Z,8.89
2022-12-31T03:45:16.288Z,8.91
2022-12-31T03:47:42.644Z,8.92
2022-12-31T03:50:10.380Z,8.94
2022-12-31T03:52:36.709Z,8.93
2022-12-31T03:55:03.131Z,8.99
2022-12-31T03:57:29.770Z,8.99
2022-12-31T03:59:56.082Z,8.99
2022-12-31T04:02:28.248Z,9.00
2022-12-31T04:04:55.413Z,9.04
2022-12-31T04:07:21.719Z,9.05
2022-12-31T04:09:48.007Z,9.03
2022-12-31T04:12:14.354Z,9.01
2022-12-31T04:14:40.783Z,9.02
2022-12-31T04:17:07.070Z,9.01
2022-12-31T04:19:33.383Z,9.00
2022-12-31T04:21:59.696Z,9.02
2022-12-31T04:24:26.021Z,9.01
2022-12-31T04:26:52.348Z,8.99
2022-12-31T04:29:18.791Z,8.99
2022-12-31T04:31:45.175Z,8.97
2022-12-31T04:34:11.497Z,8.96
2022-12-31T04:36:37.758Z,8.93
2022-12-31T04:39:04.098Z,8.91
2022-12-31T04:41:30.412Z,8.87
2022-12-31T04:43:58.163Z,8.83
2022-12-31T04:46:29.261Z,8.83
2022-12-31T04:48:55.856Z,8.81
2022-12-31T04:51:22.525Z,8.79
2022-12-31T04:53:49.060Z,8.78
2022-12-31T04:56:16.158Z,8.76
2022-12-31T04:58:42.456Z,8.77
2022-12-31T05:01:08.898Z,8.80
2022-12-31T05:03:35.566Z,8.82
2022-12-31T05:06:10.747Z,8.86
2022-12-31T05:08:37.035Z,8.92
2022-12-31T05:11:03.340Z,8.96
2022-12-31T05:13:33.366Z,9.01
2022-12-31T05:16:00.295Z,9.04
2022-12-31T05:18:26.664Z,9.09
2022-12-31T05:20:52.955Z,9.12
2022-12-31T05:23:19.399Z,9.15
2022-12-31T05:25:46.827Z,9.21
2022-12-31T05:28:13.481Z,9.22
2022-12-31T05:30:39.775Z,9.22
2022-12-31T05:33:06.060Z,9.25
2022-12-31T05:35:32.422Z,9.21
2022-12-31T05:37:59.825Z,9.22
2022-12-31T05:40:26.160Z,9.25
2022-12-31T05:42:52.421Z,9.26
2022-12-31T05:45:20.415Z,9.25
2022-12-31T05:47:49.137Z,9.27
2022-12-31T05:50:15.714Z,9.28
2022-12-31T05:52:47.417Z,9.30
2022-12-31T05:55:14.165Z,9.32
2022-12-31T05:57:40.440Z,9.36
2022-12-31T06:00:07.178Z,9.39
2022-12-31T06:02:33.510Z,9.39
2022-12-31T06:04:59.842Z,9.40
2022-12-31T06:07:26.162Z,9.40
2022-12-31T06:09:52.453Z,9.41
2022-12-31T06:12:18.754Z,9.39
2022-12-31T06:14:45.888Z,9.37
2022-12-31T06:17:12.390Z,9.33
2022-12-31T06:19:38.643Z,9.33
2022-12-31T06:22:04.897Z,9.32
2022-12-31T06:24:31.155Z,9.29
2022-12-31T06:26:57.440Z,9.28
2022-12-31T06:29:23.700Z,9.27
2022-12-31T06:31:50.007Z,9.29
2022-12-31T06:34:16.372Z,9.31
2022-12-31T06:36:42.623Z,9.32
2022-12-31T06:39:08.891Z,9.33
2022-12-31T06:41:35.217Z,9.33
2022-12-31T06:44:01.574Z,9.38
2022-12-31T06:46:27.933Z,9.38
2022-12-31T06:48:54.245Z,9.42
2022-12-31T06:51:21.623Z,9.41
2022-12-31T06:53:48.800Z,9.40
2022-12-31T06:56:16.490Z,9.40
2022-12-31T06:58:42.939Z,9.41
2022-12-31T07:01:30.350Z,9.40
2022-12-31T07:04:02.668Z,9.40
2022-12-31T07:06:44.022Z,9.40
2022-12-31T07:09:22.252Z,9.40
2022-12-31T07:11:48.478Z,9.39
2022-12-31T13:15:54.012Z,10.76
2022-12-31T13:56:25.724Z,10.78
2022-12-31T13:58:58.155Z,10.81
2022-12-31T14:01:36.790Z,10.82
2022-12-31T14:04:12.144Z,10.83
2022-12-31T14:06:38.417Z,10.83
2022-12-31T14:09:05.128Z,10.84
2022-12-31T14:11:41.306Z,10.87
2022-12-31T14:14:15.822Z,10.88
2022-12-31T14:17:08.621Z,10.90
2022-12-31T14:19:44.013Z,10.91
2022-12-31T14:22:13.427Z,10.91
2022-12-31T14:24:44.651Z,10.90
2022-12-31T14:27:19.710Z,10.88
2022-12-31T14:29:52.217Z,10.86
2022-12-31T14:32:37.175Z,10.85
2022-12-31T14:35:15.560Z,10.85
2022-12-31T14:38:02.144Z,10.88
2022-12-31T14:40:32.621Z,10.89
2022-12-31T14:43:10.496Z,10.92
2022-12-31T14:45:46.783Z,10.96
2022-12-31T14:48:21.606Z,10.98
2022-12-31T14:50:48.557Z,10.99
2022-12-31T14:53:25.913Z,11.03
2022-12-31T14:55:58.348Z,11.07
2022-12-31T14:58:38.280Z,11.07
2022-12-31T15:01:18.762Z,11.06
2022-12-31T15:03:46.243Z,11.09
2022-12-31T15:06:31.485Z,11.10
2022-12-31T15:09:12.909Z,11.09
2022-12-31T15:11:46.135Z,11.13
2022-12-31T15:14:24.650Z,11.14
2022-12-31T15:16:54.140Z,11.17
2022-12-31T15:19:43.290Z,11.16
2022-12-31T15:22:18.519Z,11.18
2022-12-31T15:24:46.610Z,11.18
2022-12-31T15:27:31.671Z,11.25
2022-12-31T15:29:58.216Z,11.27
2022-12-31T15:32:44.714Z,11.27
2022-12-31T15:35:20.056Z,11.24
2022-12-31T15:37:57.292Z,11.20
2022-12-31T15:40:25.065Z,11.23
2022-12-31T15:42:58.399Z,11.26
2022-12-31T15:45:30.987Z,11.27
2022-12-31T15:47:59.136Z,11.27
2022-12-31T15:50:25.811Z,11.30
2022-12-31T15:52:54.182Z,11.27
2022-12-31T15:55:25.284Z,11.23
2022-12-31T15:57:53.261Z,11.18
2022-12-31T16:00:21.707Z,11.15
2022-12-31T16:02:50.131Z,11.16
2022-12-31T16:05:17.860Z,11.16
2022-12-31T16:07:44.227Z,11.16
2022-12-31T16:10:15.477Z,11.17
2022-12-31T16:12:44.804Z,11.17
2022-12-31T16:15:20.455Z,11.15
2022-12-31T16:17:47.008Z,11.11
2022-12-31T16:20:26.877Z,11.06
2022-12-31T16:22:56.128Z,11.04
2022-12-31T16:25:31.611Z,11.01
2022-12-31T16:27:59.153Z,10.99
2022-12-31T16:30:30.351Z,10.96
2022-12-31T16:33:02.064Z,10.91
2022-12-31T16:35:36.245Z,10.86
2022-12-31T16:38:02.598Z,10.84
2022-12-31T16:40:29.211Z,10.81
2022-12-31T16:42:55.866Z,10.78
2022-12-31T16:45:31.004Z,10.78
2022-12-31T16:48:00.803Z,10.75
2022-12-31T16:50:27.209Z,10.69
2022-12-31T16:53:04.795Z,10.66
2022-12-31T16:55:32.197Z,10.62
2022-12-31T16:58:01.475Z,10.61
2022-12-31T17:00:28.070Z,10.61
2022-12-31T17:03:08.747Z,10.63
2022-12-31T17:05:52.922Z,10.61
2022-12-31T17:08:23.622Z,10.58
2022-12-31T17:10:49.878Z,10.56
2022-12-31T17:13:29.844Z,10.54
2022-12-31T17:15:57.095Z,10.50
2022-12-31T17:18:25.500Z,10.51
2022-12-31T17:20:53.039Z,10.48
2022-12-31T17:23:26.851Z,10.46
2022-12-31T17:26:22.649Z,10.45
2022-12-31T17:28:50.873Z,10.44
2022-12-31T17:31:35.382Z,10.44
2022-12-31T17:34:10.695Z,10.47
2022-12-31T17:36:36.951Z,10.45
2022-12-31T17:39:19.409Z,10.46
2022-12-31T17:41:46.423Z,10.44
2022-12-31T17:44:32.959Z,10.44
2022-12-31T17:46:59.314Z,10.42
2022-12-31T17:49:30.225Z,10.42
2022-12-31T17:51:56.670Z,10.38
2022-12-31T17:54:23.144Z,10.36
2022-12-31T17:56:49.671Z,10.35
2022-12-31T17:59:17.434Z,10.34
2022-12-31T18:01:43.877Z,10.29
2022-12-31T18:04:14.213Z,10.26
2022-12-31T18:06:40.734Z,10.23
2022-12-31T18:09:07.243Z,10.21
2022-12-31T18:11:33.789Z,10.19
2022-12-31T18:14:00.112Z,10.20
2022-12-31T18:16:28.228Z,10.18
2022-12-31T18:18:56.584Z,10.20
2022-12-31T18:21:22.815Z,10.21
2022-12-31T18:23:49.835Z,10.22
2022-12-31T18:26:18.168Z,10.22
2022-12-31T18:28:44.734Z,10.22
2022-12-31T18:31:16.450Z,10.21
2022-12-31T18:33:42.850Z,10.19
2022-12-31T18:36:13.275Z,10.18
2022-12-31T18:38:39.929Z,10.18
2022-12-31T18:41:07.120Z,10.18
2022-12-31T18:43:33.445Z,10.17
2022-12-31T18:45:59.725Z,10.16
2022-12-31T18:48:26.041Z,10.15
2022-12-31T18:50:52.308Z,10.16
2022-12-31T18:53:22.694Z,10.15
2022-12-31T18:55:55.952Z,10.14
2022-12-31T18:58:22.969Z,10.13
2022-12-31T19:00:50.576Z,10.13
2022-12-31T19:03:18.136Z,10.11
2022-12-31T19:05:46.959Z,10.11
2022-12-31T19:08:13.203Z,10.10
2022-12-31T19:10:39.555Z,10.08
2022-12-31T19:13:05.839Z,10.07
2022-12-31T19:15:42.683Z,10.06
2022-12-31T19:18:09.568Z,10.05
2022-12-31T19:20:35.819Z,10.07
2022-12-31T19:23:02.085Z,10.07
2022-12-31T19:25:33.574Z,10.07
2022-12-31T19:28:04.067Z,10.06
2022-12-31T19:30:31.492Z,10.05
2022-12-31T19:32:57.738Z,10.04
2022-12-31T19:35:24.282Z,10.04
2022-12-31T19:37:51.751Z,10.05
2022-12-31T19:40:19.267Z,10.04
2022-12-31T19:42:46.098Z,10.04
2022-12-31T19:45:16.523Z,10.05
2022-12-31T19:47:43.943Z,10.06
2022-12-31T19:50:28.330Z,10.05
2022-12-31T19:52:56.640Z,10.07
2022-12-31T19:55:26.105Z,10.06
2022-12-31T19:57:52.665Z,10.05
2022-12-31T20:00:19.170Z,10.07
2022-12-31T20:02:47.231Z,10.08
2022-12-31T20:05:14.975Z,10.08
2022-12-31T20:07:41.490Z,10.09
2022-12-31T20:10:08.373Z,10.10
2022-12-31T20:12:40.557Z,10.10
2022-12-31T20:15:10.544Z,10.12
2022-12-31T20:17:37.087Z,10.14
2022-12-31T20:20:03.796Z,10.17
2022-12-31T20:22:30.059Z,10.16
2022-12-31T20:24:56.358Z,10.16
2022-12-31T20:27:22.606Z,10.15
2022-12-31T20:29:48.915Z,10.16
2022-12-31T20:32:15.192Z,10.16
2022-12-31T20:34:41.492Z,10.14
2022-12-31T20:37:07.741Z,10.12
2022-12-31T20:39:34.041Z,10.12
2022-12-31T20:42:00.401Z,10.13
2022-12-31T20:44:26.670Z,10.13
2022-12-31T20:46:52.953Z,10.13
2022-12-31T20:49:37.075Z,10.14
2022-12-31T20:52:06.019Z,10.16
2022-12-31T20:54:32.471Z,10.18
2022-12-31T20:57:00.058Z,10.25
2022-12-31T20:59:26.963Z,10.32
2022-12-31T21:02:20.469Z,10.38
2022-12-31T21:04:39.688Z,10.46
2022-12-31T21:07:06.020Z,10.51
2022-12-31T21:09:32.310Z,10.56
2022-12-31T21:12:17.142Z,10.61
2022-12-31T21:14:44.967Z,10.67
2022-12-31T21:17:11.363Z,10.74
2022-12-31T21:19:37.637Z,10.82
2022-12-31T21:22:03.917Z,10.85
2022-12-31T21:24:30.170Z,10.89
2022-12-31T21:26:56.676Z,10.91
2022-12-31T21:29:22.993Z,10.94
2022-12-31T21:31:49.684Z,10.96
2022-12-31T21:34:15.943Z,10.94
2022-12-31T21:36:42.239Z,10.95
2022-12-31T21:39:08.503Z,10.96
2022-12-31T21:41:52.879Z,10.98
2022-12-31T21:44:20.819Z,10.95
2022-12-31T21:47:33.241Z,10.95
2022-12-31T21:49:40.299Z,10.92
2022-12-31T21:52:35.968Z,10.92
2022-12-31T21:55:21.682Z,10.90
2022-12-31T21:58:24.069Z,10.87
2022-12-31T22:00:53.960Z,10.86
2022-12-31T22:03:27.579Z,10.83
2022-12-31T22:05:59.789Z,10.81
2022-12-31T22:08:26.827Z,10.81
2022-12-31T22:10:53.637Z,10.79
2022-12-31T22:13:20.091Z,10.77
2022-12-31T22:15:47.417Z,10.77
2022-12-31T22:18:14.932Z,10.73
2022-12-31T22:20:41.467Z,10.69
2022-12-31T22:23:08.058Z,10.71
2022-12-31T22:25:35.241Z,10.70
2022-12-31T22:28:36.842Z,10.67
2022-12-31T22:30:48.657Z,10.64
2022-12-31T22:33:14.923Z,10.64
2022-12-31T22:35:41.177Z,10.63
2022-12-31T22:38:11.877Z,10.61
2022-12-31T22:40:38.737Z,10.50
2022-12-31T22:43:05.029Z,10.57
2022-12-31T22:45:31.318Z,10.56
2022-12-31T22:47:57.561Z,10.55
2022-12-31T22:50:24.247Z,10.53
2022-12-31T22:52:50.581Z,10.54
2022-12-31T22:55:16.883Z,10.53
2022-12-31T22:57:43.328Z,10.56
2022-12-31T23:00:12.212Z,10.57
2022-12-31T23:02:41.769Z,10.58
2022-12-31T23:05:16.163Z,10.54
2022-12-31T23:07:42.900Z,10.58
2022-12-31T23:10:28.036Z,10.58
2022-12-31T23:12:54.306Z,10.55
2022-12-31T23:15:38.950Z,10.58
2022-12-31T23:18:23.977Z,10.61
2022-12-31T23:21:08.782Z,10.63
2022-12-31T23:23:35.063Z,10.64
2022-12-31T23:26:02.028Z,10.68
2022-12-31T23:28:28.319Z,10.68
2022-12-31T23:30:54.596Z,10.60
2022-12-31T23:33:22.417Z,10.69
2022-12-31T23:35:48.836Z,10.63
2022-12-31T23:38:16.749Z,10.72
2022-12-31T23:40:43.193Z,10.62
2022-12-31T23:43:10.073Z,10.55
2022-12-31T23:45:36.516Z,10.70
2022-12-31T23:48:03.499Z,10.71
2022-12-31T23:50:29.781Z,10.64
2022-12-31T23:52:56.082Z,10.72
2022-12-31T23:55:22.381Z,10.65
2022-12-31T23:57:48.664Z,10.73
